East Dublin, Georgia
Current Conditions -  °F | °C
As of 6:55 PM on Sunday 21 Dec 2014 (Local Time) from KDBN Reporting Station
Drizzle Drizzle  
Wind Chill: 41°   Ceiling: 600
Heat Index: 45°   Visibility: 3mi
Dew Point: 45°   Wind: 7mph
Humidity: 100%   Direction: 60°ENE
Pressure: 30.14"   Gusts: NA
Location:  32.5474°N, 82.8635°W
Report Text: KDBN 212355Z AUTO 06006KT 3SM DZ OVC006 07/07 A3014 RMK AO2
Loading
Personal Weather Stations






























Interactive Weather Map New forecast layout! Learn more

10-Day Weather Forecast

Advertisements
Track Severe Weather on mobile